CheckWX is a tool to help pilots better visualize weather data.  It is not intended as a substitute for an official pre-flight weather briefing.

01:16:13 UTC

KCGZ METAR
Casa Grande Municipal Airport
Casa Grande, Arizona, USA
Current

20 mins ago

KCGZ 240056Z AUTO 04004KT 10SM CLR 11/00 A3026 RMK AO2 SLP253 T01060000 PNO $
Observed
Feb-24 @ 00:56 UTC
Wind
  • 040° at 4 KTS
Visibility
10 SM
Flight Rules
VFR
Cloud Levels
  • Clear skies
Temperature
11°C / 52°F
Dewpoint
C / 32°F
Humidity
47%
Altimeter
30.26" Hg
Pressure
1025.3 hPa
Previous

1 hour ago

KCGZ 232356Z AUTO 05005KT 10SM CLR 11/01 A3026 RMK AO2 SLP254 6//// T01110006 10117 20067 56013 PNO $
Observed
Feb-23 @ 23:56 UTC
Wind
  • 050° at 5 KTS
Visibility
10 SM
Flight Rules
VFR
Cloud Levels
  • Clear skies
Temperature
11°C / 52°F
Dewpoint
C / 34°F
Humidity
50%
Altimeter
30.26" Hg
Pressure
1025.4 hPa
Previous

2 hours ago

KCGZ 232256Z AUTO 00000KT 10SM CLR 11/01 A3027 RMK AO2 SLP258 T01110006 PNO $
Observed
Feb-23 @ 22:56 UTC
Visibility
10 SM
Flight Rules
VFR
Cloud Levels
  • Clear skies
Temperature
11°C / 52°F
Dewpoint
C / 34°F
Humidity
50%
Altimeter
30.27" Hg
Pressure
1025.8 hPa